<?xml version="1.0" encoding="UTF-8" standalone="no" ?>
<gpx xmlns="http://www.topografix.com/GPX/1/1" xmlns:xsi="http://www.w3.org/2001/XMLSchema-instance" xsi:schemaLocation="http://www.topografix.com/GPX/1/1 http://www.topografix.com/GPX/1/1/gpx.xsd" version="1.1" creator="VisuGPX - https://www.visugpx.com">
  <metadata>
    <name>Barres de Cuers</name>
    <desc><![CDATA[barres de Cuers au départ de Cuers]]></desc>
  </metadata>
  <trk>
    <name><![CDATA[4382238-Barres de Cuers]]></name>
    <extensions>
      <line xmlns="http://www.topografix.com/GPX/gpx_style/0/2">
        <color>0000FF</color>
        <width>4</width>
      </line>
    </extensions>
    <trkseg>
      <trkpt lat="43.26035" lon="6.06428">
        <ele>220</ele>
        <time>2021-10-26T16:25:01Z</time>
      </trkpt>
      <trkpt lat="43.26028" lon="6.06439">
        <ele>221</ele>
        <time>2021-10-26T16:25:15Z</time>
      </trkpt>
      <trkpt lat="43.26091" lon="6.06504">
        <ele>223</ele>
        <time>2021-10-26T16:27:00Z</time>
      </trkpt>
      <trkpt lat="43.26197" lon="6.06518">
        <ele>228</ele>
        <time>2021-10-26T16:29:22Z</time>
      </trkpt>
      <trkpt lat="43.26222" lon="6.06548">
        <ele>230</ele>
        <time>2021-10-26T16:30:07Z</time>
      </trkpt>
      <trkpt lat="43.26264" lon="6.06554">
        <ele>231</ele>
        <time>2021-10-26T16:31:03Z</time>
      </trkpt>
      <trkpt lat="43.26285" lon="6.06537">
        <ele>230</ele>
        <time>2021-10-26T16:31:36Z</time>
      </trkpt>
      <trkpt lat="43.26318" lon="6.06477">
        <ele>234</ele>
        <time>2021-10-26T16:32:49Z</time>
      </trkpt>
      <trkpt lat="43.26364" lon="6.06448">
        <ele>238</ele>
        <time>2021-10-26T16:33:56Z</time>
      </trkpt>
      <trkpt lat="43.26413" lon="6.06369">
        <ele>244</ele>
        <time>2021-10-26T16:35:37Z</time>
      </trkpt>
      <trkpt lat="43.26533" lon="6.06114">
        <ele>269</ele>
        <time>2021-10-26T16:40:32Z</time>
      </trkpt>
      <trkpt lat="43.26586" lon="6.06033">
        <ele>273</ele>
        <time>2021-10-26T16:42:18Z</time>
      </trkpt>
      <trkpt lat="43.26652" lon="6.05968">
        <ele>283</ele>
        <time>2021-10-26T16:44:06Z</time>
      </trkpt>
      <trkpt lat="43.26729" lon="6.05928">
        <ele>292</ele>
        <time>2021-10-26T16:45:56Z</time>
      </trkpt>
      <trkpt lat="43.2678" lon="6.05891">
        <ele>300</ele>
        <time>2021-10-26T16:47:13Z</time>
      </trkpt>
      <trkpt lat="43.26824" lon="6.05835">
        <ele>302</ele>
        <time>2021-10-26T16:48:33Z</time>
      </trkpt>
      <trkpt lat="43.26849" lon="6.05794">
        <ele>306</ele>
        <time>2021-10-26T16:49:25Z</time>
      </trkpt>
      <trkpt lat="43.26924" lon="6.05626">
        <ele>315</ele>
        <time>2021-10-26T16:52:37Z</time>
      </trkpt>
      <trkpt lat="43.26951" lon="6.05591">
        <ele>317</ele>
        <time>2021-10-26T16:53:26Z</time>
      </trkpt>
      <trkpt lat="43.26977" lon="6.05583">
        <ele>319</ele>
        <time>2021-10-26T16:54:02Z</time>
      </trkpt>
      <trkpt lat="43.27029" lon="6.05437">
        <ele>329</ele>
        <time>2021-10-26T16:56:40Z</time>
      </trkpt>
      <trkpt lat="43.26886" lon="6.05201">
        <ele>360</ele>
        <time>2021-10-26T17:01:38Z</time>
      </trkpt>
      <trkpt lat="43.26838" lon="6.05138">
        <ele>370</ele>
        <time>2021-10-26T17:03:07Z</time>
      </trkpt>
      <trkpt lat="43.26734" lon="6.05062">
        <ele>382</ele>
        <time>2021-10-26T17:05:44Z</time>
      </trkpt>
      <trkpt lat="43.26701" lon="6.04972">
        <ele>393</ele>
        <time>2021-10-26T17:07:22Z</time>
      </trkpt>
      <trkpt lat="43.26725" lon="6.04912">
        <ele>407</ele>
        <time>2021-10-26T17:08:28Z</time>
      </trkpt>
      <trkpt lat="43.26793" lon="6.04855">
        <ele>425</ele>
        <time>2021-10-26T17:10:15Z</time>
      </trkpt>
      <trkpt lat="43.26833" lon="6.04796">
        <ele>446</ele>
        <time>2021-10-26T17:11:33Z</time>
      </trkpt>
      <trkpt lat="43.26912" lon="6.04783">
        <ele>459</ele>
        <time>2021-10-26T17:13:19Z</time>
      </trkpt>
      <trkpt lat="43.2693" lon="6.04777">
        <ele>462</ele>
        <time>2021-10-26T17:13:44Z</time>
      </trkpt>
      <trkpt lat="43.26982" lon="6.04745">
        <ele>475</ele>
        <time>2021-10-26T17:15:00Z</time>
      </trkpt>
      <trkpt lat="43.27025" lon="6.0476">
        <ele>474</ele>
        <time>2021-10-26T17:15:59Z</time>
      </trkpt>
      <trkpt lat="43.27053" lon="6.04755">
        <ele>480</ele>
        <time>2021-10-26T17:16:37Z</time>
      </trkpt>
      <trkpt lat="43.27115" lon="6.04727">
        <ele>499</ele>
        <time>2021-10-26T17:18:04Z</time>
      </trkpt>
      <trkpt lat="43.27185" lon="6.04752">
        <ele>498</ele>
        <time>2021-10-26T17:19:40Z</time>
      </trkpt>
      <trkpt lat="43.27242" lon="6.04722">
        <ele>514</ele>
        <time>2021-10-26T17:21:02Z</time>
      </trkpt>
      <trkpt lat="43.27281" lon="6.04682">
        <ele>534</ele>
        <time>2021-10-26T17:22:07Z</time>
      </trkpt>
      <trkpt lat="43.27367" lon="6.047">
        <ele>536</ele>
        <time>2021-10-26T17:24:03Z</time>
      </trkpt>
      <trkpt lat="43.27431" lon="6.04727">
        <ele>541</ele>
        <time>2021-10-26T17:25:32Z</time>
      </trkpt>
      <trkpt lat="43.27466" lon="6.04732">
        <ele>547</ele>
        <time>2021-10-26T17:26:19Z</time>
      </trkpt>
      <trkpt lat="43.27461" lon="6.0473">
        <ele>546</ele>
        <time>2021-10-26T17:26:26Z</time>
      </trkpt>
      <trkpt lat="43.27463" lon="6.04729">
        <ele>547</ele>
        <time>2021-10-26T17:26:29Z</time>
      </trkpt>
      <trkpt lat="43.27509" lon="6.04732">
        <ele>557</ele>
        <time>2021-10-26T17:27:30Z</time>
      </trkpt>
      <trkpt lat="43.27553" lon="6.04713">
        <ele>573</ele>
        <time>2021-10-26T17:28:32Z</time>
      </trkpt>
      <trkpt lat="43.27598" lon="6.04711">
        <ele>583</ele>
        <time>2021-10-26T17:29:32Z</time>
      </trkpt>
      <trkpt lat="43.2764" lon="6.0469">
        <ele>592</ele>
        <time>2021-10-26T17:30:32Z</time>
      </trkpt>
      <trkpt lat="43.27657" lon="6.04678">
        <ele>594</ele>
        <time>2021-10-26T17:30:57Z</time>
      </trkpt>
      <trkpt lat="43.27639" lon="6.04685">
        <ele>592</ele>
        <time>2021-10-26T17:31:22Z</time>
      </trkpt>
      <trkpt lat="43.27635" lon="6.04686">
        <ele>592</ele>
        <time>2021-10-26T17:31:28Z</time>
      </trkpt>
      <trkpt lat="43.27582" lon="6.04643">
        <ele>595</ele>
        <time>2021-10-26T17:32:50Z</time>
      </trkpt>
      <trkpt lat="43.27487" lon="6.04591">
        <ele>601</ele>
        <time>2021-10-26T17:35:06Z</time>
      </trkpt>
      <trkpt lat="43.27432" lon="6.0455">
        <ele>605</ele>
        <time>2021-10-26T17:36:30Z</time>
      </trkpt>
      <trkpt lat="43.27403" lon="6.04534">
        <ele>609</ele>
        <time>2021-10-26T17:37:11Z</time>
      </trkpt>
      <trkpt lat="43.27352" lon="6.04496">
        <ele>627</ele>
        <time>2021-10-26T17:38:29Z</time>
      </trkpt>
      <trkpt lat="43.27256" lon="6.04458">
        <ele>636</ele>
        <time>2021-10-26T17:40:42Z</time>
      </trkpt>
      <trkpt lat="43.2722" lon="6.0442">
        <ele>654</ele>
        <time>2021-10-26T17:41:43Z</time>
      </trkpt>
      <trkpt lat="43.27149" lon="6.04402">
        <ele>666</ele>
        <time>2021-10-26T17:43:19Z</time>
      </trkpt>
      <trkpt lat="43.27099" lon="6.0441">
        <ele>660</ele>
        <time>2021-10-26T17:44:26Z</time>
      </trkpt>
      <trkpt lat="43.27018" lon="6.04338">
        <ele>671</ele>
        <time>2021-10-26T17:46:35Z</time>
      </trkpt>
      <trkpt lat="43.26985" lon="6.04295">
        <ele>674</ele>
        <time>2021-10-26T17:47:36Z</time>
      </trkpt>
      <trkpt lat="43.26931" lon="6.04267">
        <ele>669</ele>
        <time>2021-10-26T17:48:53Z</time>
      </trkpt>
      <trkpt lat="43.26877" lon="6.04206">
        <ele>660</ele>
        <time>2021-10-26T17:50:26Z</time>
      </trkpt>
      <trkpt lat="43.26844" lon="6.04143">
        <ele>657</ele>
        <time>2021-10-26T17:51:41Z</time>
      </trkpt>
      <trkpt lat="43.26809" lon="6.04002">
        <ele>647</ele>
        <time>2021-10-26T17:54:06Z</time>
      </trkpt>
      <trkpt lat="43.26792" lon="6.03892">
        <ele>639</ele>
        <time>2021-10-26T17:55:55Z</time>
      </trkpt>
      <trkpt lat="43.26789" lon="6.03828">
        <ele>635</ele>
        <time>2021-10-26T17:56:58Z</time>
      </trkpt>
      <trkpt lat="43.26754" lon="6.03714">
        <ele>622</ele>
        <time>2021-10-26T17:58:58Z</time>
      </trkpt>
      <trkpt lat="43.26723" lon="6.03635">
        <ele>612</ele>
        <time>2021-10-26T18:00:25Z</time>
      </trkpt>
      <trkpt lat="43.26682" lon="6.036">
        <ele>606</ele>
        <time>2021-10-26T18:01:30Z</time>
      </trkpt>
      <trkpt lat="43.26669" lon="6.03562">
        <ele>611</ele>
        <time>2021-10-26T18:02:10Z</time>
      </trkpt>
      <trkpt lat="43.26653" lon="6.03545">
        <ele>612</ele>
        <time>2021-10-26T18:02:37Z</time>
      </trkpt>
      <trkpt lat="43.26616" lon="6.03537">
        <ele>610</ele>
        <time>2021-10-26T18:03:27Z</time>
      </trkpt>
      <trkpt lat="43.26604" lon="6.03527">
        <ele>613</ele>
        <time>2021-10-26T18:03:46Z</time>
      </trkpt>
      <trkpt lat="43.2656" lon="6.03457">
        <ele>617</ele>
        <time>2021-10-26T18:05:16Z</time>
      </trkpt>
      <trkpt lat="43.26529" lon="6.03389">
        <ele>608</ele>
        <time>2021-10-26T18:06:34Z</time>
      </trkpt>
      <trkpt lat="43.26504" lon="6.03348">
        <ele>601</ele>
        <time>2021-10-26T18:07:26Z</time>
      </trkpt>
      <trkpt lat="43.26505" lon="6.03293">
        <ele>598</ele>
        <time>2021-10-26T18:08:19Z</time>
      </trkpt>
      <trkpt lat="43.26476" lon="6.03254">
        <ele>580</ele>
        <time>2021-10-26T18:09:14Z</time>
      </trkpt>
      <trkpt lat="43.26474" lon="6.03135">
        <ele>574</ele>
        <time>2021-10-26T18:11:09Z</time>
      </trkpt>
      <trkpt lat="43.26512" lon="6.03124">
        <ele>582</ele>
        <time>2021-10-26T18:12:01Z</time>
      </trkpt>
      <trkpt lat="43.26604" lon="6.03056">
        <ele>574</ele>
        <time>2021-10-26T18:14:20Z</time>
      </trkpt>
      <trkpt lat="43.2663" lon="6.0303">
        <ele>571</ele>
        <time>2021-10-26T18:15:03Z</time>
      </trkpt>
      <trkpt lat="43.26736" lon="6.02886">
        <ele>554</ele>
        <time>2021-10-26T18:18:22Z</time>
      </trkpt>
      <trkpt lat="43.26788" lon="6.02772">
        <ele>549</ele>
        <time>2021-10-26T18:20:33Z</time>
      </trkpt>
      <trkpt lat="43.26819" lon="6.02734">
        <ele>545</ele>
        <time>2021-10-26T18:21:29Z</time>
      </trkpt>
      <trkpt lat="43.2682" lon="6.02698">
        <ele>544</ele>
        <time>2021-10-26T18:22:04Z</time>
      </trkpt>
      <trkpt lat="43.26835" lon="6.02601">
        <ele>542</ele>
        <time>2021-10-26T18:23:40Z</time>
      </trkpt>
      <trkpt lat="43.26831" lon="6.02549">
        <ele>542</ele>
        <time>2021-10-26T18:24:31Z</time>
      </trkpt>
      <trkpt lat="43.26841" lon="6.02484">
        <ele>541</ele>
        <time>2021-10-26T18:25:35Z</time>
      </trkpt>
      <trkpt lat="43.26838" lon="6.02422">
        <ele>539</ele>
        <time>2021-10-26T18:26:36Z</time>
      </trkpt>
      <trkpt lat="43.26872" lon="6.02351">
        <ele>536</ele>
        <time>2021-10-26T18:27:58Z</time>
      </trkpt>
      <trkpt lat="43.26879" lon="6.02325">
        <ele>535</ele>
        <time>2021-10-26T18:28:25Z</time>
      </trkpt>
      <trkpt lat="43.26892" lon="6.02252">
        <ele>535</ele>
        <time>2021-10-26T18:29:38Z</time>
      </trkpt>
      <trkpt lat="43.26933" lon="6.02153">
        <ele>532</ele>
        <time>2021-10-26T18:31:29Z</time>
      </trkpt>
      <trkpt lat="43.26948" lon="6.02067">
        <ele>528</ele>
        <time>2021-10-26T18:32:55Z</time>
      </trkpt>
      <trkpt lat="43.26958" lon="6.02042">
        <ele>527</ele>
        <time>2021-10-26T18:33:22Z</time>
      </trkpt>
      <trkpt lat="43.26959" lon="6.01915">
        <ele>517</ele>
        <time>2021-10-26T18:35:26Z</time>
      </trkpt>
      <trkpt lat="43.2702" lon="6.0176">
        <ele>509</ele>
        <time>2021-10-26T18:38:17Z</time>
      </trkpt>
      <trkpt lat="43.27072" lon="6.01705">
        <ele>504</ele>
        <time>2021-10-26T18:39:45Z</time>
      </trkpt>
      <trkpt lat="43.27111" lon="6.01679">
        <ele>501</ele>
        <time>2021-10-26T18:40:43Z</time>
      </trkpt>
      <trkpt lat="43.27148" lon="6.01669">
        <ele>499</ele>
        <time>2021-10-26T18:41:33Z</time>
      </trkpt>
      <trkpt lat="43.27183" lon="6.0164">
        <ele>497</ele>
        <time>2021-10-26T18:42:27Z</time>
      </trkpt>
      <trkpt lat="43.27176" lon="6.0159">
        <ele>497</ele>
        <time>2021-10-26T18:43:17Z</time>
      </trkpt>
      <trkpt lat="43.27156" lon="6.01538">
        <ele>496</ele>
        <time>2021-10-26T18:44:14Z</time>
      </trkpt>
      <trkpt lat="43.27163" lon="6.01497">
        <ele>495</ele>
        <time>2021-10-26T18:44:55Z</time>
      </trkpt>
      <trkpt lat="43.27194" lon="6.01544">
        <ele>495</ele>
        <time>2021-10-26T18:45:57Z</time>
      </trkpt>
      <trkpt lat="43.27207" lon="6.01575">
        <ele>495</ele>
        <time>2021-10-26T18:46:31Z</time>
      </trkpt>
      <trkpt lat="43.27255" lon="6.01635">
        <ele>496</ele>
        <time>2021-10-26T18:47:58Z</time>
      </trkpt>
      <trkpt lat="43.27293" lon="6.01695">
        <ele>496</ele>
        <time>2021-10-26T18:49:15Z</time>
      </trkpt>
      <trkpt lat="43.27329" lon="6.01737">
        <ele>495</ele>
        <time>2021-10-26T18:50:18Z</time>
      </trkpt>
      <trkpt lat="43.2736" lon="6.01798">
        <ele>496</ele>
        <time>2021-10-26T18:51:30Z</time>
      </trkpt>
      <trkpt lat="43.27365" lon="6.01826">
        <ele>497</ele>
        <time>2021-10-26T18:51:59Z</time>
      </trkpt>
      <trkpt lat="43.27367" lon="6.01941">
        <ele>504</ele>
        <time>2021-10-26T18:53:50Z</time>
      </trkpt>
      <trkpt lat="43.27364" lon="6.01969">
        <ele>505</ele>
        <time>2021-10-26T18:54:18Z</time>
      </trkpt>
      <trkpt lat="43.27368" lon="6.02098">
        <ele>507</ele>
        <time>2021-10-26T18:56:23Z</time>
      </trkpt>
      <trkpt lat="43.27414" lon="6.02279">
        <ele>509</ele>
        <time>2021-10-26T18:59:29Z</time>
      </trkpt>
      <trkpt lat="43.27408" lon="6.02276">
        <ele>509</ele>
        <time>2021-10-26T18:59:38Z</time>
      </trkpt>
      <trkpt lat="43.27413" lon="6.02274">
        <ele>509</ele>
        <time>2021-10-26T18:59:45Z</time>
      </trkpt>
      <trkpt lat="43.27406" lon="6.02297">
        <ele>510</ele>
        <time>2021-10-26T19:00:09Z</time>
      </trkpt>
      <trkpt lat="43.27366" lon="6.02381">
        <ele>512</ele>
        <time>2021-10-26T19:01:47Z</time>
      </trkpt>
      <trkpt lat="43.27372" lon="6.02431">
        <ele>512</ele>
        <time>2021-10-26T19:02:36Z</time>
      </trkpt>
      <trkpt lat="43.27482" lon="6.02525">
        <ele>512</ele>
        <time>2021-10-26T19:05:29Z</time>
      </trkpt>
      <trkpt lat="43.27498" lon="6.02546">
        <ele>512</ele>
        <time>2021-10-26T19:05:58Z</time>
      </trkpt>
      <trkpt lat="43.27499" lon="6.02545">
        <ele>512</ele>
        <time>2021-10-26T19:06:00Z</time>
      </trkpt>
      <trkpt lat="43.27504" lon="6.02551">
        <ele>512</ele>
        <time>2021-10-26T19:06:09Z</time>
      </trkpt>
      <trkpt lat="43.27441" lon="6.02542">
        <ele>513</ele>
        <time>2021-10-26T19:07:33Z</time>
      </trkpt>
      <trkpt lat="43.27444" lon="6.02539">
        <ele>513</ele>
        <time>2021-10-26T19:07:38Z</time>
      </trkpt>
      <trkpt lat="43.27444" lon="6.02539">
        <ele>513</ele>
        <time>2021-10-26T19:07:38Z</time>
      </trkpt>
      <trkpt lat="43.27445" lon="6.02539">
        <ele>513</ele>
        <time>2021-10-26T19:07:40Z</time>
      </trkpt>
      <trkpt lat="43.27444" lon="6.0254">
        <ele>513</ele>
        <time>2021-10-26T19:07:41Z</time>
      </trkpt>
      <trkpt lat="43.27445" lon="6.02538">
        <ele>513</ele>
        <time>2021-10-26T19:07:44Z</time>
      </trkpt>
      <trkpt lat="43.27445" lon="6.02539">
        <ele>513</ele>
        <time>2021-10-26T19:07:45Z</time>
      </trkpt>
      <trkpt lat="43.27444" lon="6.02539">
        <ele>513</ele>
        <time>2021-10-26T19:07:46Z</time>
      </trkpt>
      <trkpt lat="43.27444" lon="6.02538">
        <ele>513</ele>
        <time>2021-10-26T19:07:47Z</time>
      </trkpt>
      <trkpt lat="43.27444" lon="6.02539">
        <ele>513</ele>
        <time>2021-10-26T19:07:48Z</time>
      </trkpt>
      <trkpt lat="43.27444" lon="6.02539">
        <ele>513</ele>
        <time>2021-10-26T19:07:48Z</time>
      </trkpt>
      <trkpt lat="43.27444" lon="6.02537">
        <ele>513</ele>
        <time>2021-10-26T19:07:50Z</time>
      </trkpt>
      <trkpt lat="43.27444" lon="6.02537">
        <ele>513</ele>
        <time>2021-10-26T19:07:50Z</time>
      </trkpt>
      <trkpt lat="43.27444" lon="6.02539">
        <ele>513</ele>
        <time>2021-10-26T19:07:52Z</time>
      </trkpt>
      <trkpt lat="43.27445" lon="6.02538">
        <ele>513</ele>
        <time>2021-10-26T19:07:53Z</time>
      </trkpt>
      <trkpt lat="43.27444" lon="6.02539">
        <ele>513</ele>
        <time>2021-10-26T19:07:55Z</time>
      </trkpt>
      <trkpt lat="43.27444" lon="6.02538">
        <ele>513</ele>
        <time>2021-10-26T19:07:56Z</time>
      </trkpt>
      <trkpt lat="43.27444" lon="6.02539">
        <ele>513</ele>
        <time>2021-10-26T19:07:57Z</time>
      </trkpt>
      <trkpt lat="43.27444" lon="6.02539">
        <ele>513</ele>
        <time>2021-10-26T19:07:57Z</time>
      </trkpt>
      <trkpt lat="43.27443" lon="6.02539">
        <ele>513</ele>
        <time>2021-10-26T19:07:58Z</time>
      </trkpt>
      <trkpt lat="43.27443" lon="6.02539">
        <ele>513</ele>
        <time>2021-10-26T19:07:58Z</time>
      </trkpt>
      <trkpt lat="43.27443" lon="6.02538">
        <ele>513</ele>
        <time>2021-10-26T19:07:59Z</time>
      </trkpt>
      <trkpt lat="43.27444" lon="6.02545">
        <ele>513</ele>
        <time>2021-10-26T19:08:06Z</time>
      </trkpt>
      <trkpt lat="43.27497" lon="6.02542">
        <ele>512</ele>
        <time>2021-10-26T19:09:17Z</time>
      </trkpt>
      <trkpt lat="43.27542" lon="6.02621">
        <ele>512</ele>
        <time>2021-10-26T19:10:55Z</time>
      </trkpt>
      <trkpt lat="43.2758" lon="6.02661">
        <ele>512</ele>
        <time>2021-10-26T19:11:59Z</time>
      </trkpt>
      <trkpt lat="43.27673" lon="6.02802">
        <ele>520</ele>
        <time>2021-10-26T19:15:03Z</time>
      </trkpt>
      <trkpt lat="43.27723" lon="6.02859">
        <ele>521</ele>
        <time>2021-10-26T19:16:30Z</time>
      </trkpt>
      <trkpt lat="43.27788" lon="6.03006">
        <ele>523</ele>
        <time>2021-10-26T19:19:17Z</time>
      </trkpt>
      <trkpt lat="43.2779" lon="6.03045">
        <ele>525</ele>
        <time>2021-10-26T19:19:55Z</time>
      </trkpt>
      <trkpt lat="43.27784" lon="6.03161">
        <ele>531</ele>
        <time>2021-10-26T19:21:48Z</time>
      </trkpt>
      <trkpt lat="43.27756" lon="6.0324">
        <ele>539</ele>
        <time>2021-10-26T19:23:14Z</time>
      </trkpt>
      <trkpt lat="43.27739" lon="6.03262">
        <ele>544</ele>
        <time>2021-10-26T19:23:45Z</time>
      </trkpt>
      <trkpt lat="43.27751" lon="6.03328">
        <ele>550</ele>
        <time>2021-10-26T19:24:51Z</time>
      </trkpt>
      <trkpt lat="43.27776" lon="6.03358">
        <ele>549</ele>
        <time>2021-10-26T19:25:35Z</time>
      </trkpt>
      <trkpt lat="43.27851" lon="6.03501">
        <ele>548</ele>
        <time>2021-10-26T19:28:26Z</time>
      </trkpt>
      <trkpt lat="43.27904" lon="6.03564">
        <ele>539</ele>
        <time>2021-10-26T19:30:00Z</time>
      </trkpt>
      <trkpt lat="43.27913" lon="6.03588">
        <ele>538</ele>
        <time>2021-10-26T19:30:26Z</time>
      </trkpt>
      <trkpt lat="43.27959" lon="6.0366">
        <ele>539</ele>
        <time>2021-10-26T19:31:59Z</time>
      </trkpt>
      <trkpt lat="43.27987" lon="6.03739">
        <ele>540</ele>
        <time>2021-10-26T19:33:24Z</time>
      </trkpt>
      <trkpt lat="43.28015" lon="6.03771">
        <ele>540</ele>
        <time>2021-10-26T19:34:13Z</time>
      </trkpt>
      <trkpt lat="43.28036" lon="6.03779">
        <ele>541</ele>
        <time>2021-10-26T19:34:42Z</time>
      </trkpt>
      <trkpt lat="43.28064" lon="6.03835">
        <ele>545</ele>
        <time>2021-10-26T19:35:48Z</time>
      </trkpt>
      <trkpt lat="43.28096" lon="6.03865">
        <ele>550</ele>
        <time>2021-10-26T19:36:40Z</time>
      </trkpt>
      <trkpt lat="43.28103" lon="6.03915">
        <ele>557</ele>
        <time>2021-10-26T19:37:29Z</time>
      </trkpt>
      <trkpt lat="43.28099" lon="6.03968">
        <ele>564</ele>
        <time>2021-10-26T19:38:21Z</time>
      </trkpt>
      <trkpt lat="43.28026" lon="6.04002">
        <ele>566</ele>
        <time>2021-10-26T19:40:04Z</time>
      </trkpt>
      <trkpt lat="43.28035" lon="6.04028">
        <ele>571</ele>
        <time>2021-10-26T19:40:32Z</time>
      </trkpt>
      <trkpt lat="43.28087" lon="6.04066">
        <ele>577</ele>
        <time>2021-10-26T19:41:51Z</time>
      </trkpt>
      <trkpt lat="43.28144" lon="6.04098">
        <ele>586</ele>
        <time>2021-10-26T19:43:13Z</time>
      </trkpt>
      <trkpt lat="43.28178" lon="6.04141">
        <ele>588</ele>
        <time>2021-10-26T19:44:14Z</time>
      </trkpt>
      <trkpt lat="43.28198" lon="6.04187">
        <ele>587</ele>
        <time>2021-10-26T19:45:06Z</time>
      </trkpt>
      <trkpt lat="43.2823" lon="6.04238">
        <ele>583</ele>
        <time>2021-10-26T19:46:12Z</time>
      </trkpt>
      <trkpt lat="43.28244" lon="6.04269">
        <ele>580</ele>
        <time>2021-10-26T19:46:47Z</time>
      </trkpt>
      <trkpt lat="43.28285" lon="6.04411">
        <ele>574</ele>
        <time>2021-10-26T19:49:16Z</time>
      </trkpt>
      <trkpt lat="43.28368" lon="6.04471">
        <ele>568</ele>
        <time>2021-10-26T19:51:21Z</time>
      </trkpt>
      <trkpt lat="43.28446" lon="6.04592">
        <ele>559</ele>
        <time>2021-10-26T19:53:58Z</time>
      </trkpt>
      <trkpt lat="43.28477" lon="6.04719">
        <ele>556</ele>
        <time>2021-10-26T19:56:08Z</time>
      </trkpt>
      <trkpt lat="43.28476" lon="6.04751">
        <ele>557</ele>
        <time>2021-10-26T19:56:39Z</time>
      </trkpt>
      <trkpt lat="43.28509" lon="6.04793">
        <ele>554</ele>
        <time>2021-10-26T19:57:39Z</time>
      </trkpt>
      <trkpt lat="43.28534" lon="6.04772">
        <ele>554</ele>
        <time>2021-10-26T19:58:18Z</time>
      </trkpt>
      <trkpt lat="43.28574" lon="6.04688">
        <ele>552</ele>
        <time>2021-10-26T19:59:56Z</time>
      </trkpt>
      <trkpt lat="43.28614" lon="6.04675">
        <ele>552</ele>
        <time>2021-10-26T20:00:51Z</time>
      </trkpt>
      <trkpt lat="43.28659" lon="6.0469">
        <ele>553</ele>
        <time>2021-10-26T20:01:52Z</time>
      </trkpt>
      <trkpt lat="43.28744" lon="6.04753">
        <ele>554</ele>
        <time>2021-10-26T20:04:01Z</time>
      </trkpt>
      <trkpt lat="43.28773" lon="6.04803">
        <ele>555</ele>
        <time>2021-10-26T20:05:03Z</time>
      </trkpt>
      <trkpt lat="43.28782" lon="6.04869">
        <ele>559</ele>
        <time>2021-10-26T20:06:09Z</time>
      </trkpt>
      <trkpt lat="43.28765" lon="6.04898">
        <ele>561</ele>
        <time>2021-10-26T20:06:45Z</time>
      </trkpt>
      <trkpt lat="43.28731" lon="6.04974">
        <ele>571</ele>
        <time>2021-10-26T20:08:11Z</time>
      </trkpt>
      <trkpt lat="43.28699" lon="6.05025">
        <ele>577</ele>
        <time>2021-10-26T20:09:17Z</time>
      </trkpt>
      <trkpt lat="43.28701" lon="6.05088">
        <ele>581</ele>
        <time>2021-10-26T20:10:18Z</time>
      </trkpt>
      <trkpt lat="43.28688" lon="6.05125">
        <ele>585</ele>
        <time>2021-10-26T20:10:58Z</time>
      </trkpt>
      <trkpt lat="43.28685" lon="6.05204">
        <ele>595</ele>
        <time>2021-10-26T20:12:15Z</time>
      </trkpt>
      <trkpt lat="43.28672" lon="6.05294">
        <ele>608</ele>
        <time>2021-10-26T20:13:44Z</time>
      </trkpt>
      <trkpt lat="43.28681" lon="6.05377">
        <ele>621</ele>
        <time>2021-10-26T20:15:05Z</time>
      </trkpt>
      <trkpt lat="43.28692" lon="6.05395">
        <ele>624</ele>
        <time>2021-10-26T20:15:28Z</time>
      </trkpt>
      <trkpt lat="43.28708" lon="6.0547">
        <ele>637</ele>
        <time>2021-10-26T20:16:44Z</time>
      </trkpt>
      <trkpt lat="43.28705" lon="6.05502">
        <ele>642</ele>
        <time>2021-10-26T20:17:16Z</time>
      </trkpt>
      <trkpt lat="43.28716" lon="6.05534">
        <ele>647</ele>
        <time>2021-10-26T20:17:50Z</time>
      </trkpt>
      <trkpt lat="43.28702" lon="6.05646">
        <ele>659</ele>
        <time>2021-10-26T20:19:40Z</time>
      </trkpt>
      <trkpt lat="43.28696" lon="6.05713">
        <ele>664</ele>
        <time>2021-10-26T20:20:46Z</time>
      </trkpt>
      <trkpt lat="43.28674" lon="6.05783">
        <ele>672</ele>
        <time>2021-10-26T20:22:00Z</time>
      </trkpt>
      <trkpt lat="43.28665" lon="6.05804">
        <ele>676</ele>
        <time>2021-10-26T20:22:24Z</time>
      </trkpt>
      <trkpt lat="43.28652" lon="6.05861">
        <ele>678</ele>
        <time>2021-10-26T20:23:22Z</time>
      </trkpt>
      <trkpt lat="43.28584" lon="6.05963">
        <ele>687</ele>
        <time>2021-10-26T20:25:36Z</time>
      </trkpt>
      <trkpt lat="43.28583" lon="6.05969">
        <ele>687</ele>
        <time>2021-10-26T20:25:42Z</time>
      </trkpt>
      <trkpt lat="43.28585" lon="6.05972">
        <ele>686</ele>
        <time>2021-10-26T20:25:46Z</time>
      </trkpt>
      <trkpt lat="43.28584" lon="6.05974">
        <ele>686</ele>
        <time>2021-10-26T20:25:48Z</time>
      </trkpt>
      <trkpt lat="43.28585" lon="6.05975">
        <ele>685</ele>
        <time>2021-10-26T20:25:50Z</time>
      </trkpt>
      <trkpt lat="43.28586" lon="6.05974">
        <ele>685</ele>
        <time>2021-10-26T20:25:52Z</time>
      </trkpt>
      <trkpt lat="43.28584" lon="6.05977">
        <ele>686</ele>
        <time>2021-10-26T20:25:56Z</time>
      </trkpt>
      <trkpt lat="43.28539" lon="6.05917">
        <ele>683</ele>
        <time>2021-10-26T20:27:19Z</time>
      </trkpt>
      <trkpt lat="43.28505" lon="6.05904">
        <ele>675</ele>
        <time>2021-10-26T20:28:06Z</time>
      </trkpt>
      <trkpt lat="43.28439" lon="6.05828">
        <ele>657</ele>
        <time>2021-10-26T20:30:01Z</time>
      </trkpt>
      <trkpt lat="43.284" lon="6.05759">
        <ele>641</ele>
        <time>2021-10-26T20:31:26Z</time>
      </trkpt>
      <trkpt lat="43.28384" lon="6.05703">
        <ele>631</ele>
        <time>2021-10-26T20:32:25Z</time>
      </trkpt>
      <trkpt lat="43.28385" lon="6.05642">
        <ele>627</ele>
        <time>2021-10-26T20:33:24Z</time>
      </trkpt>
      <trkpt lat="43.28367" lon="6.05611">
        <ele>617</ele>
        <time>2021-10-26T20:34:02Z</time>
      </trkpt>
      <trkpt lat="43.28356" lon="6.05556">
        <ele>609</ele>
        <time>2021-10-26T20:34:58Z</time>
      </trkpt>
      <trkpt lat="43.28304" lon="6.05498">
        <ele>595</ele>
        <time>2021-10-26T20:36:27Z</time>
      </trkpt>
      <trkpt lat="43.28297" lon="6.05462">
        <ele>593</ele>
        <time>2021-10-26T20:37:03Z</time>
      </trkpt>
      <trkpt lat="43.28262" lon="6.05417">
        <ele>592</ele>
        <time>2021-10-26T20:38:07Z</time>
      </trkpt>
      <trkpt lat="43.28233" lon="6.05412">
        <ele>589</ele>
        <time>2021-10-26T20:38:46Z</time>
      </trkpt>
      <trkpt lat="43.28183" lon="6.05371">
        <ele>590</ele>
        <time>2021-10-26T20:40:04Z</time>
      </trkpt>
      <trkpt lat="43.28169" lon="6.05349">
        <ele>596</ele>
        <time>2021-10-26T20:40:32Z</time>
      </trkpt>
      <trkpt lat="43.28036" lon="6.05247">
        <ele>613</ele>
        <time>2021-10-26T20:43:56Z</time>
      </trkpt>
      <trkpt lat="43.28017" lon="6.05246">
        <ele>613</ele>
        <time>2021-10-26T20:44:21Z</time>
      </trkpt>
      <trkpt lat="43.27973" lon="6.05211">
        <ele>617</ele>
        <time>2021-10-26T20:45:29Z</time>
      </trkpt>
      <trkpt lat="43.27938" lon="6.05195">
        <ele>620</ele>
        <time>2021-10-26T20:46:18Z</time>
      </trkpt>
      <trkpt lat="43.279" lon="6.05151">
        <ele>629</ele>
        <time>2021-10-26T20:47:24Z</time>
      </trkpt>
      <trkpt lat="43.27831" lon="6.05144">
        <ele>618</ele>
        <time>2021-10-26T20:48:57Z</time>
      </trkpt>
      <trkpt lat="43.2779" lon="6.05071">
        <ele>624</ele>
        <time>2021-10-26T20:50:26Z</time>
      </trkpt>
      <trkpt lat="43.2774" lon="6.05013">
        <ele>620</ele>
        <time>2021-10-26T20:51:54Z</time>
      </trkpt>
      <trkpt lat="43.27711" lon="6.04903">
        <ele>608</ele>
        <time>2021-10-26T20:53:47Z</time>
      </trkpt>
      <trkpt lat="43.2771" lon="6.04818">
        <ele>603</ele>
        <time>2021-10-26T20:55:10Z</time>
      </trkpt>
      <trkpt lat="43.27674" lon="6.04748">
        <ele>597</ele>
        <time>2021-10-26T20:56:33Z</time>
      </trkpt>
      <trkpt lat="43.27638" lon="6.04695">
        <ele>591</ele>
        <time>2021-10-26T20:57:44Z</time>
      </trkpt>
      <trkpt lat="43.2764" lon="6.04694">
        <ele>591</ele>
        <time>2021-10-26T20:57:47Z</time>
      </trkpt>
      <trkpt lat="43.27629" lon="6.04691">
        <ele>591</ele>
        <time>2021-10-26T20:58:01Z</time>
      </trkpt>
      <trkpt lat="43.27599" lon="6.04707">
        <ele>584</ele>
        <time>2021-10-26T20:58:44Z</time>
      </trkpt>
      <trkpt lat="43.27555" lon="6.04714">
        <ele>573</ele>
        <time>2021-10-26T20:59:44Z</time>
      </trkpt>
      <trkpt lat="43.27518" lon="6.0473">
        <ele>560</ele>
        <time>2021-10-26T21:00:35Z</time>
      </trkpt>
      <trkpt lat="43.27477" lon="6.04736">
        <ele>548</ele>
        <time>2021-10-26T21:01:30Z</time>
      </trkpt>
      <trkpt lat="43.27407" lon="6.04723">
        <ele>537</ele>
        <time>2021-10-26T21:03:05Z</time>
      </trkpt>
      <trkpt lat="43.27311" lon="6.04681">
        <ele>536</ele>
        <time>2021-10-26T21:05:19Z</time>
      </trkpt>
      <trkpt lat="43.27257" lon="6.0472">
        <ele>516</ele>
        <time>2021-10-26T21:06:40Z</time>
      </trkpt>
      <trkpt lat="43.27193" lon="6.04755">
        <ele>498</ele>
        <time>2021-10-26T21:08:12Z</time>
      </trkpt>
      <trkpt lat="43.27167" lon="6.04754">
        <ele>497</ele>
        <time>2021-10-26T21:08:47Z</time>
      </trkpt>
      <trkpt lat="43.27123" lon="6.0473">
        <ele>499</ele>
        <time>2021-10-26T21:09:50Z</time>
      </trkpt>
      <trkpt lat="43.27045" lon="6.04766">
        <ele>475</ele>
        <time>2021-10-26T21:11:40Z</time>
      </trkpt>
      <trkpt lat="43.27" lon="6.04753">
        <ele>473</ele>
        <time>2021-10-26T21:12:41Z</time>
      </trkpt>
      <trkpt lat="43.26944" lon="6.04782">
        <ele>461</ele>
        <time>2021-10-26T21:14:01Z</time>
      </trkpt>
      <trkpt lat="43.26845" lon="6.04803">
        <ele>445</ele>
        <time>2021-10-26T21:16:15Z</time>
      </trkpt>
      <trkpt lat="43.26825" lon="6.04822">
        <ele>437</ele>
        <time>2021-10-26T21:16:47Z</time>
      </trkpt>
      <trkpt lat="43.2678" lon="6.04882">
        <ele>417</ele>
        <time>2021-10-26T21:18:11Z</time>
      </trkpt>
      <trkpt lat="43.26717" lon="6.04941">
        <ele>400</ele>
        <time>2021-10-26T21:19:53Z</time>
      </trkpt>
      <trkpt lat="43.26715" lon="6.04987">
        <ele>391</ele>
        <time>2021-10-26T21:20:38Z</time>
      </trkpt>
      <trkpt lat="43.26747" lon="6.05072">
        <ele>381</ele>
        <time>2021-10-26T21:22:11Z</time>
      </trkpt>
      <trkpt lat="43.26752" lon="6.05092">
        <ele>379</ele>
        <time>2021-10-26T21:22:31Z</time>
      </trkpt>
      <trkpt lat="43.26753" lon="6.05093">
        <ele>379</ele>
        <time>2021-10-26T21:22:33Z</time>
      </trkpt>
      <trkpt lat="43.26752" lon="6.05091">
        <ele>379</ele>
        <time>2021-10-26T21:22:35Z</time>
      </trkpt>
      <trkpt lat="43.26781" lon="6.05085">
        <ele>379</ele>
        <time>2021-10-26T21:23:14Z</time>
      </trkpt>
      <trkpt lat="43.26841" lon="6.05117">
        <ele>373</ele>
        <time>2021-10-26T21:24:40Z</time>
      </trkpt>
      <trkpt lat="43.26884" lon="6.05176">
        <ele>363</ele>
        <time>2021-10-26T21:26:01Z</time>
      </trkpt>
      <trkpt lat="43.26934" lon="6.05271">
        <ele>350</ele>
        <time>2021-10-26T21:27:55Z</time>
      </trkpt>
      <trkpt lat="43.26998" lon="6.05369">
        <ele>335</ele>
        <time>2021-10-26T21:30:03Z</time>
      </trkpt>
      <trkpt lat="43.27035" lon="6.054">
        <ele>334</ele>
        <time>2021-10-26T21:31:01Z</time>
      </trkpt>
      <trkpt lat="43.26999" lon="6.05531">
        <ele>321</ele>
        <time>2021-10-26T21:33:17Z</time>
      </trkpt>
      <trkpt lat="43.27" lon="6.05592">
        <ele>322</ele>
        <time>2021-10-26T21:34:16Z</time>
      </trkpt>
      <trkpt lat="43.26944" lon="6.05614">
        <ele>317</ele>
        <time>2021-10-26T21:35:34Z</time>
      </trkpt>
      <trkpt lat="43.26855" lon="6.05796">
        <ele>307</ele>
        <time>2021-10-26T21:39:07Z</time>
      </trkpt>
      <trkpt lat="43.26799" lon="6.05884">
        <ele>304</ele>
        <time>2021-10-26T21:41:01Z</time>
      </trkpt>
      <trkpt lat="43.26764" lon="6.0592">
        <ele>297</ele>
        <time>2021-10-26T21:41:59Z</time>
      </trkpt>
      <trkpt lat="43.26679" lon="6.05964">
        <ele>289</ele>
        <time>2021-10-26T21:44:00Z</time>
      </trkpt>
      <trkpt lat="43.26642" lon="6.05995">
        <ele>283</ele>
        <time>2021-10-26T21:44:58Z</time>
      </trkpt>
      <trkpt lat="43.26529" lon="6.06144">
        <ele>270</ele>
        <time>2021-10-26T21:48:27Z</time>
      </trkpt>
      <trkpt lat="43.26493" lon="6.06248">
        <ele>264</ele>
        <time>2021-10-26T21:50:19Z</time>
      </trkpt>
      <trkpt lat="43.26449" lon="6.06304">
        <ele>255</ele>
        <time>2021-10-26T21:51:39Z</time>
      </trkpt>
      <trkpt lat="43.26434" lon="6.06353">
        <ele>248</ele>
        <time>2021-10-26T21:52:31Z</time>
      </trkpt>
      <trkpt lat="43.26364" lon="6.0646">
        <ele>236</ele>
        <time>2021-10-26T21:54:51Z</time>
      </trkpt>
      <trkpt lat="43.26316" lon="6.06489">
        <ele>232</ele>
        <time>2021-10-26T21:56:00Z</time>
      </trkpt>
      <trkpt lat="43.26297" lon="6.06539">
        <ele>231</ele>
        <time>2021-10-26T21:56:55Z</time>
      </trkpt>
      <trkpt lat="43.26244" lon="6.06553">
        <ele>231</ele>
        <time>2021-10-26T21:58:07Z</time>
      </trkpt>
      <trkpt lat="43.26229" lon="6.06493">
        <ele>230</ele>
        <time>2021-10-26T21:59:09Z</time>
      </trkpt>
      <trkpt lat="43.26187" lon="6.06495">
        <ele>227</ele>
        <time>2021-10-26T22:00:05Z</time>
      </trkpt>
      <trkpt lat="43.26144" lon="6.06512">
        <ele>226</ele>
        <time>2021-10-26T22:01:05Z</time>
      </trkpt>
      <trkpt lat="43.2611" lon="6.06498">
        <ele>223</ele>
        <time>2021-10-26T22:01:52Z</time>
      </trkpt>
      <trkpt lat="43.26052" lon="6.06431">
        <ele>221</ele>
        <time>2021-10-26T22:03:33Z</time>
      </trkpt>
      <trkpt lat="43.2607" lon="6.06421">
        <ele>222</ele>
        <time>2021-10-26T22:03:59Z</time>
      </trkpt>
    </trkseg>
  </trk>
</gpx>